sensor_id;sensor_type;location;lat;lon;timestamp;P1;durP1;ratioP1;P2;durP2;ratioP2
24897;SDS011;12957;49.434;8.684;2024-03-23T00:53:14;8.00;;;5.72;;
24897;SDS011;12957;49.434;8.684;2024-03-23T00:55:40;8.05;;;6.03;;
24897;SDS011;12957;49.434;8.684;2024-03-23T00:58:06;8.18;;;5.57;;
24897;SDS011;12957;49.434;8.684;2024-03-23T01:00:32;10.88;;;5.40;;
24897;SDS011;12957;49.434;8.684;2024-03-23T01:02:57;9.38;;;5.47;;
24897;SDS011;12957;49.434;8.684;2024-03-23T01:05:23;12.45;;;6.68;;
24897;SDS011;12957;49.434;8.684;2024-03-23T01:07:48;8.73;;;5.63;;
24897;SDS011;12957;49.434;8.684;2024-03-23T01:10:14;9.30;;;6.82;;
24897;SDS011;12957;49.434;8.684;2024-03-23T01:12:39;9.93;;;6.35;;
24897;SDS011;12957;49.434;8.684;2024-03-23T01:15:05;8.95;;;5.93;;
24897;SDS011;12957;49.434;8.684;2024-03-23T01:17:31;11.20;;;6.05;;
24897;SDS011;12957;49.434;8.684;2024-03-23T01:19:57;8.38;;;6.18;;
24897;SDS011;12957;49.434;8.684;2024-03-23T01:22:22;10.20;;;6.07;;
24897;SDS011;12957;49.434;8.684;2024-03-23T01:24:48;12.95;;;6.82;;
24897;SDS011;12957;49.434;8.684;2024-03-23T01:27:13;9.57;;;5.90;;
24897;SDS011;12957;49.434;8.684;2024-03-23T01:29:39;10.20;;;6.07;;
24897;SDS011;12957;49.434;8.684;2024-03-23T01:32:05;11.85;;;5.80;;
24897;SDS011;12957;49.434;8.684;2024-03-23T01:34:31;6.82;;;5.97;;
24897;SDS011;12957;49.434;8.684;2024-03-23T01:36:56;10.70;;;6.13;;
24897;SDS011;12957;49.434;8.684;2024-03-23T01:39:22;8.65;;;6.05;;
24897;SDS011;12957;49.434;8.684;2024-03-23T01:41:47;9.63;;;5.65;;
24897;SDS011;12957;49.434;8.684;2024-03-23T01:44:12;9.48;;;6.05;;
24897;SDS011;12957;49.434;8.684;2024-03-23T01:46:38;7.95;;;5.88;;
24897;SDS011;12957;49.434;8.684;2024-03-23T01:49:04;9.25;;;6.18;;
24897;SDS011;12957;49.434;8.684;2024-03-23T01:51:30;9.85;;;5.72;;
24897;SDS011;12957;49.434;8.684;2024-03-23T01:53:56;9.18;;;5.50;;
24897;SDS011;12957;49.434;8.684;2024-03-23T01:56:22;8.00;;;5.82;;
24897;SDS011;12957;49.434;8.684;2024-03-23T01:58:47;8.50;;;6.00;;
24897;SDS011;12957;49.434;8.684;2024-03-23T02:01:13;8.32;;;6.28;;
24897;SDS011;12957;49.434;8.684;2024-03-23T02:03:38;9.73;;;6.18;;
24897;SDS011;12957;49.434;8.684;2024-03-23T02:06:04;9.90;;;5.82;;
24897;SDS011;12957;49.434;8.684;2024-03-23T02:08:32;10.18;;;5.47;;
24897;SDS011;12957;49.434;8.684;2024-03-23T02:10:57;8.15;;;5.72;;
24897;SDS011;12957;49.434;8.684;2024-03-23T02:13:23;7.50;;;5.35;;
24897;SDS011;12957;49.434;8.684;2024-03-23T02:15:49;6.53;;;5.32;;
24897;SDS011;12957;49.434;8.684;2024-03-23T02:18:14;10.23;;;5.75;;
24897;SDS011;12957;49.434;8.684;2024-03-23T02:20:40;7.88;;;5.78;;
24897;SDS011;12957;49.434;8.684;2024-03-23T02:23:05;9.13;;;5.18;;
24897;SDS011;12957;49.434;8.684;2024-03-23T02:25:31;9.48;;;4.80;;
24897;SDS011;12957;49.434;8.684;2024-03-23T02:27:58;8.27;;;5.10;;
24897;SDS011;12957;49.434;8.684;2024-03-23T02:30:24;9.63;;;5.47;;
24897;SDS011;12957;49.434;8.684;2024-03-23T02:32:50;6.68;;;4.75;;
24897;SDS011;12957;49.434;8.684;2024-03-23T02:35:15;7.30;;;5.00;;
24897;SDS011;12957;49.434;8.684;2024-03-23T02:37:41;6.07;;;4.80;;
24897;SDS011;12957;49.434;8.684;2024-03-23T02:40:07;7.25;;;4.70;;
24897;SDS011;12957;49.434;8.684;2024-03-23T02:42:33;5.28;;;4.50;;
24897;SDS011;12957;49.434;8.684;2024-03-23T02:44:59;5.57;;;4.57;;
24897;SDS011;12957;49.434;8.684;2024-03-23T02:47:25;8.80;;;5.22;;
24897;SDS011;12957;49.434;8.684;2024-03-23T02:49:50;8.02;;;5.03;;
24897;SDS011;12957;49.434;8.684;2024-03-23T02:52:15;4.93;;;4.43;;
24897;SDS011;12957;49.434;8.684;2024-03-23T02:54:41;13.75;;;5.30;;
24897;SDS011;12957;49.434;8.684;2024-03-23T02:57:09;5.75;;;4.50;;
24897;SDS011;12957;49.434;8.684;2024-03-23T02:59:35;5.05;;;4.43;;
24897;SDS011;12957;49.434;8.684;2024-03-23T03:02:01;6.32;;;4.82;;
24897;SDS011;12957;49.434;8.684;2024-03-23T03:04:26;8.18;;;4.97;;
24897;SDS011;12957;49.434;8.684;2024-03-23T03:06:52;5.88;;;4.32;;
24897;SDS011;12957;49.434;8.684;2024-03-23T03:09:17;8.48;;;4.70;;
24897;SDS011;12957;49.434;8.684;2024-03-23T03:11:43;9.60;;;5.03;;
24897;SDS011;12957;49.434;8.684;2024-03-23T03:14:08;7.20;;;5.00;;
24897;SDS011;12957;49.434;8.684;2024-03-23T03:16:34;8.98;;;4.10;;
24897;SDS011;12957;49.434;8.684;2024-03-23T03:18:59;10.02;;;5.45;;
24897;SDS011;12957;49.434;8.684;2024-03-23T03:21:26;6.57;;;4.95;;
24897;SDS011;12957;49.434;8.684;2024-03-23T03:23:52;8.40;;;5.20;;
24897;SDS011;12957;49.434;8.684;2024-03-23T03:26:17;7.63;;;5.07;;
24897;SDS011;12957;49.434;8.684;2024-03-23T03:28:43;10.65;;;5.07;;
24897;SDS011;12957;49.434;8.684;2024-03-23T03:31:13;6.60;;;5.13;;
24897;SDS011;12957;49.434;8.684;2024-03-23T03:33:42;11.63;;;5.15;;
24897;SDS011;12957;49.434;8.684;2024-03-23T03:36:08;6.88;;;5.40;;
24897;SDS011;12957;49.434;8.684;2024-03-23T03:38:33;7.65;;;5.20;;
24897;SDS011;12957;49.434;8.684;2024-03-23T03:41:02;7.95;;;4.72;;
24897;SDS011;12957;49.434;8.684;2024-03-23T03:43:27;13.07;;;5.60;;
24897;SDS011;12957;49.434;8.684;2024-03-23T03:45:56;7.90;;;5.15;;
24897;SDS011;12957;49.434;8.684;2024-03-23T03:48:22;12.88;;;5.43;;
24897;SDS011;12957;49.434;8.684;2024-03-23T03:50:48;9.48;;;5.00;;
24897;SDS011;12957;49.434;8.684;2024-03-23T03:53:14;9.30;;;5.35;;
24897;SDS011;12957;49.434;8.684;2024-03-23T03:55:39;6.93;;;5.20;;
24897;SDS011;12957;49.434;8.684;2024-03-23T03:58:05;9.30;;;4.90;;
24897;SDS011;12957;49.434;8.684;2024-03-23T04:00:30;6.40;;;5.28;;
24897;SDS011;12957;49.434;8.684;2024-03-23T04:02:56;5.72;;;5.13;;
24897;SDS011;12957;49.434;8.684;2024-03-23T04:05:22;11.50;;;6.10;;
24897;SDS011;12957;49.434;8.684;2024-03-23T04:07:48;10.00;;;5.65;;
24897;SDS011;12957;49.434;8.684;2024-03-23T04:10:13;12.98;;;5.50;;
24897;SDS011;12957;49.434;8.684;2024-03-23T04:12:40;9.20;;;6.20;;
24897;SDS011;12957;49.434;8.684;2024-03-23T04:15:06;9.23;;;5.72;;
24897;SDS011;12957;49.434;8.684;2024-03-23T04:17:32;6.35;;;5.30;;
24897;SDS011;12957;49.434;8.684;2024-03-23T04:19:59;10.23;;;5.93;;
24897;SDS011;12957;49.434;8.684;2024-03-23T04:22:24;8.55;;;5.82;;
24897;SDS011;12957;49.434;8.684;2024-03-23T04:24:52;8.27;;;5.60;;
24897;SDS011;12957;49.434;8.684;2024-03-23T04:27:18;10.73;;;6.10;;
24897;SDS011;12957;49.434;8.684;2024-03-23T04:29:47;7.43;;;6.05;;
24897;SDS011;12957;49.434;8.684;2024-03-23T04:32:14;9.52;;;5.72;;
24897;SDS011;12957;49.434;8.684;2024-03-23T04:34:39;8.52;;;5.80;;
24897;SDS011;12957;49.434;8.684;2024-03-23T04:37:05;8.00;;;6.00;;
24897;SDS011;12957;49.434;8.684;2024-03-23T04:39:30;7.40;;;6.15;;
24897;SDS011;12957;49.434;8.684;2024-03-23T04:41:56;11.60;;;6.95;;
24897;SDS011;12957;49.434;8.684;2024-03-23T04:44:21;10.23;;;7.32;;
24897;SDS011;12957;49.434;8.684;2024-03-23T04:46:47;13.20;;;7.45;;
24897;SDS011;12957;49.434;8.684;2024-03-23T04:49:12;14.52;;;8.50;;
24897;SDS011;12957;49.434;8.684;2024-03-23T04:51:38;11.30;;;8.65;;
24897;SDS011;12957;49.434;8.684;2024-03-23T04:54:03;14.77;;;9.20;;
24897;SDS011;12957;49.434;8.684;2024-03-23T04:56:29;11.65;;;8.63;;
24897;SDS011;12957;49.434;8.684;2024-03-23T04:58:56;11.90;;;8.77;;
24897;SDS011;12957;49.434;8.684;2024-03-23T05:01:26;14.00;;;8.50;;
24897;SDS011;12957;49.434;8.684;2024-03-23T05:03:52;13.27;;;8.30;;
24897;SDS011;12957;49.434;8.684;2024-03-23T05:06:18;13.70;;;8.70;;
24897;SDS011;12957;49.434;8.684;2024-03-23T05:08:43;14.48;;;7.93;;
24897;SDS011;12957;49.434;8.684;2024-03-23T05:11:09;13.77;;;7.78;;
24897;SDS011;12957;49.434;8.684;2024-03-23T05:13:35;11.88;;;7.95;;
24897;SDS011;12957;49.434;8.684;2024-03-23T05:16:00;12.65;;;7.32;;
24897;SDS011;12957;49.434;8.684;2024-03-23T05:18:26;11.95;;;7.82;;
24897;SDS011;12957;49.434;8.684;2024-03-23T05:20:57;9.85;;;7.35;;
24897;SDS011;12957;49.434;8.684;2024-03-23T05:23:23;12.98;;;7.93;;
24897;SDS011;12957;49.434;8.684;2024-03-23T05:25:49;7.35;;;5.60;;
24897;SDS011;12957;49.434;8.684;2024-03-23T05:28:14;5.28;;;4.05;;
24897;SDS011;12957;49.434;8.684;2024-03-23T05:30:40;6.68;;;4.10;;
24897;SDS011;12957;49.434;8.684;2024-03-23T05:33:05;5.03;;;3.40;;
24897;SDS011;12957;49.434;8.684;2024-03-23T05:35:31;4.57;;;3.13;;
24897;SDS011;12957;49.434;8.684;2024-03-23T05:37:57;12.13;;;3.20;;
24897;SDS011;12957;49.434;8.684;2024-03-23T05:40:23;9.60;;;3.40;;
24897;SDS011;12957;49.434;8.684;2024-03-23T05:42:50;3.50;;;3.17;;
24897;SDS011;12957;49.434;8.684;2024-03-23T05:45:18;5.15;;;3.33;;
24897;SDS011;12957;49.434;8.684;2024-03-23T05:47:44;4.32;;;3.25;;
24897;SDS011;12957;49.434;8.684;2024-03-23T05:50:09;4.30;;;3.20;;
24897;SDS011;12957;49.434;8.684;2024-03-23T05:52:37;4.30;;;3.08;;
24897;SDS011;12957;49.434;8.684;2024-03-23T05:55:04;3.20;;;2.90;;
24897;SDS011;12957;49.434;8.684;2024-03-23T05:57:30;3.30;;;3.03;;
24897;SDS011;12957;49.434;8.684;2024-03-23T05:59:55;3.60;;;3.30;;
24897;SDS011;12957;49.434;8.684;2024-03-23T06:02:21;3.50;;;3.20;;
24897;SDS011;12957;49.434;8.684;2024-03-23T06:04:47;4.72;;;3.42;;
24897;SDS011;12957;49.434;8.684;2024-03-23T06:07:13;3.35;;;3.08;;
24897;SDS011;12957;49.434;8.684;2024-03-23T06:09:42;3.55;;;3.25;;
24897;SDS011;12957;49.434;8.684;2024-03-23T06:12:07;4.97;;;2.88;;
24897;SDS011;12957;49.434;8.684;2024-03-23T06:14:33;3.25;;;2.95;;
24897;SDS011;12957;49.434;8.684;2024-03-23T06:16:59;2.67;;;2.47;;
24897;SDS011;12957;49.434;8.684;2024-03-23T06:19:25;2.78;;;2.58;;
24897;SDS011;12957;49.434;8.684;2024-03-23T06:21:52;2.20;;;2.10;;
24897;SDS011;12957;49.434;8.684;2024-03-23T06:24:24;3.00;;;2.10;;
24897;SDS011;12957;49.434;8.684;2024-03-23T06:26:49;2.10;;;1.90;;
24897;SDS011;12957;49.434;8.684;2024-03-23T06:29:15;2.47;;;2.10;;
24897;SDS011;12957;49.434;8.684;2024-03-23T06:31:40;2.33;;;2.10;;
24897;SDS011;12957;49.434;8.684;2024-03-23T06:34:06;2.28;;;2.17;;
24897;SDS011;12957;49.434;8.684;2024-03-23T06:36:31;2.30;;;2.10;;
24897;SDS011;12957;49.434;8.684;2024-03-23T06:38:57;2.60;;;2.40;;
24897;SDS011;12957;49.434;8.684;2024-03-23T06:41:23;2.65;;;2.13;;
24897;SDS011;12957;49.434;8.684;2024-03-23T06:43:48;2.83;;;2.63;;
24897;SDS011;12957;49.434;8.684;2024-03-23T06:46:14;5.35;;;2.00;;
24897;SDS011;12957;49.434;8.684;2024-03-23T06:48:39;1.88;;;1.77;;
24897;SDS011;12957;49.434;8.684;2024-03-23T06:51:05;1.15;;;1.15;;
24897;SDS011;12957;49.434;8.684;2024-03-23T06:53:31;1.15;;;1.15;;
24897;SDS011;12957;49.434;8.684;2024-03-23T06:55:57;2.47;;;1.35;;
24897;SDS011;12957;49.434;8.684;2024-03-23T06:58:23;3.13;;;1.15;;
24897;SDS011;12957;49.434;8.684;2024-03-23T07:00:49;1.08;;;1.05;;
24897;SDS011;12957;49.434;8.684;2024-03-23T07:03:16;1.75;;;1.23;;
24897;SDS011;12957;49.434;8.684;2024-03-23T07:05:41;1.20;;;1.10;;
24897;SDS011;12957;49.434;8.684;2024-03-23T07:08:07;1.85;;;0.95;;
24897;SDS011;12957;49.434;8.684;2024-03-23T07:10:33;1.75;;;1.30;;
24897;SDS011;12957;49.434;8.684;2024-03-23T07:12:58;1.35;;;1.10;;
24897;SDS011;12957;49.434;8.684;2024-03-23T07:15:24;1.50;;;0.88;;
24897;SDS011;12957;49.434;8.684;2024-03-23T07:17:49;0.93;;;0.80;;
24897;SDS011;12957;49.434;8.684;2024-03-23T07:20:15;0.80;;;0.80;;
24897;SDS011;12957;49.434;8.684;2024-03-23T07:22:41;1.52;;;0.70;;
24897;SDS011;12957;49.434;8.684;2024-03-23T07:25:06;0.70;;;0.70;;
24897;SDS011;12957;49.434;8.684;2024-03-23T07:27:32;1.48;;;0.70;;
24897;SDS011;12957;49.434;8.684;2024-03-23T07:29:58;0.63;;;0.63;;
24897;SDS011;12957;49.434;8.684;2024-03-23T07:32:24;1.02;;;0.80;;
24897;SDS011;12957;49.434;8.684;2024-03-23T07:34:51;0.63;;;0.57;;
24897;SDS011;12957;49.434;8.684;2024-03-23T07:37:17;5.25;;;1.00;;
24897;SDS011;12957;49.434;8.684;2024-03-23T07:39:44;1.50;;;0.85;;
24897;SDS011;12957;49.434;8.684;2024-03-23T07:42:09;1.80;;;1.00;;
24897;SDS011;12957;49.434;8.684;2024-03-23T07:44:35;0.90;;;0.90;;
24897;SDS011;12957;49.434;8.684;2024-03-23T07:47:00;1.10;;;1.00;;
24897;SDS011;12957;49.434;8.684;2024-03-23T07:49:26;2.28;;;1.17;;
24897;SDS011;12957;49.434;8.684;2024-03-23T07:51:51;3.67;;;1.38;;
24897;SDS011;12957;49.434;8.684;2024-03-23T07:54:17;3.03;;;1.58;;
24897;SDS011;12957;49.434;8.684;2024-03-23T07:56:42;2.40;;;1.25;;
24897;SDS011;12957;49.434;8.684;2024-03-23T07:59:08;1.52;;;1.25;;
24897;SDS011;12957;49.434;8.684;2024-03-23T08:01:33;1.48;;;1.33;;
24897;SDS011;12957;49.434;8.684;2024-03-23T08:04:01;2.70;;;1.30;;
24897;SDS011;12957;49.434;8.684;2024-03-23T08:06:27;1.40;;;1.30;;
24897;SDS011;12957;49.434;8.684;2024-03-23T08:08:54;2.88;;;1.40;;
24897;SDS011;12957;49.434;8.684;2024-03-23T08:11:26;4.35;;;1.42;;
24897;SDS011;12957;49.434;8.684;2024-03-23T08:13:52;2.60;;;1.70;;
24897;SDS011;12957;49.434;8.684;2024-03-23T08:16:17;2.08;;;1.30;;
24897;SDS011;12957;49.434;8.684;2024-03-23T08:18:43;1.42;;;1.20;;
24897;SDS011;12957;49.434;8.684;2024-03-23T08:21:09;3.35;;;1.40;;
24897;SDS011;12957;49.434;8.684;2024-03-23T08:23:34;4.95;;;1.70;;
24897;SDS011;12957;49.434;8.684;2024-03-23T08:26:07;5.70;;;1.63;;
24897;SDS011;12957;49.434;8.684;2024-03-23T08:28:34;4.10;;;1.80;;
24897;SDS011;12957;49.434;8.684;2024-03-23T08:31:10;5.28;;;1.90;;
24897;SDS011;12957;49.434;8.684;2024-03-23T08:33:35;2.78;;;1.95;;
24897;SDS011;12957;49.434;8.684;2024-03-23T08:36:05;4.22;;;1.98;;
24897;SDS011;12957;49.434;8.684;2024-03-23T08:38:31;5.32;;;1.70;;
24897;SDS011;12957;49.434;8.684;2024-03-23T08:43:27;5.60;;;1.73;;
24897;SDS011;12957;49.434;8.684;2024-03-23T08:45:53;3.92;;;1.80;;
24897;SDS011;12957;49.434;8.684;2024-03-23T08:48:19;2.83;;;1.77;;
24897;SDS011;12957;49.434;8.684;2024-03-23T08:50:46;6.40;;;2.00;;
24897;SDS011;12957;49.434;8.684;2024-03-23T08:53:11;8.25;;;2.00;;
24897;SDS011;12957;49.434;8.684;2024-03-23T08:55:37;4.30;;;2.10;;
24897;SDS011;12957;49.434;8.684;2024-03-23T08:58:02;3.53;;;1.90;;
24897;SDS011;12957;49.434;8.684;2024-03-23T09:00:29;6.10;;;2.30;;
24897;SDS011;12957;49.434;8.684;2024-03-23T09:02:55;8.35;;;2.85;;
24897;SDS011;12957;49.434;8.684;2024-03-23T09:05:20;8.45;;;2.60;;
24897;SDS011;12957;49.434;8.684;2024-03-23T09:07:46;5.82;;;2.30;;
24897;SDS011;12957;49.434;8.684;2024-03-23T09:10:11;6.25;;;2.47;;
24897;SDS011;12957;49.434;8.684;2024-03-23T09:12:37;6.65;;;2.20;;
24897;SDS011;12957;49.434;8.684;2024-03-23T09:15:02;6.65;;;2.50;;
24897;SDS011;12957;49.434;8.684;2024-03-23T09:17:28;8.93;;;2.65;;
24897;SDS011;12957;49.434;8.684;2024-03-23T09:19:53;8.85;;;2.60;;
24897;SDS011;12957;49.434;8.684;2024-03-23T09:22:19;5.35;;;2.85;;
24897;SDS011;12957;49.434;8.684;2024-03-23T09:24:44;7.05;;;2.60;;
24897;SDS011;12957;49.434;8.684;2024-03-23T09:27:10;4.18;;;2.33;;
24897;SDS011;12957;49.434;8.684;2024-03-23T09:29:35;4.47;;;2.58;;
24897;SDS011;12957;49.434;8.684;2024-03-23T09:32:01;6.20;;;2.95;;
24897;SDS011;12957;49.434;8.684;2024-03-23T09:34:26;8.18;;;3.10;;
24897;SDS011;12957;49.434;8.684;2024-03-23T09:36:52;9.77;;;2.53;;
24897;SDS011;12957;49.434;8.684;2024-03-23T09:39:18;8.95;;;2.88;;
24897;SDS011;12957;49.434;8.684;2024-03-23T09:41:44;9.02;;;3.20;;
24897;SDS011;12957;49.434;8.684;2024-03-23T09:44:09;6.85;;;2.75;;
24897;SDS011;12957;49.434;8.684;2024-03-23T09:46:35;3.70;;;2.40;;
24897;SDS011;12957;49.434;8.684;2024-03-23T09:49:01;7.25;;;2.80;;
24897;SDS011;12957;49.434;8.684;2024-03-23T09:51:31;5.85;;;2.47;;
24897;SDS011;12957;49.434;8.684;2024-03-23T09:53:57;9.05;;;2.83;;
24897;SDS011;12957;49.434;8.684;2024-03-23T09:56:22;6.38;;;2.75;;
24897;SDS011;12957;49.434;8.684;2024-03-23T09:58:48;8.98;;;3.10;;
24897;SDS011;12957;49.434;8.684;2024-03-23T10:01:14;8.18;;;3.28;;
24897;SDS011;12957;49.434;8.684;2024-03-23T10:03:43;6.13;;;3.08;;
24897;SDS011;12957;49.434;8.684;2024-03-23T10:06:09;5.47;;;2.83;;
24897;SDS011;12957;49.434;8.684;2024-03-23T10:08:35;8.73;;;2.90;;
24897;SDS011;12957;49.434;8.684;2024-03-23T10:11:12;11.40;;;4.18;;
24897;SDS011;12957;49.434;8.684;2024-03-23T10:13:38;9.90;;;4.68;;
24897;SDS011;12957;49.434;8.684;2024-03-23T10:16:06;10.73;;;3.72;;
24897;SDS011;12957;49.434;8.684;2024-03-23T10:18:32;6.28;;;3.50;;
24897;SDS011;12957;49.434;8.684;2024-03-23T10:23:31;9.82;;;3.65;;
24897;SDS011;12957;49.434;8.684;2024-03-23T10:28:50;13.40;;;4.85;;
24897;SDS011;12957;49.434;8.684;2024-03-23T10:31:26;8.93;;;3.42;;
24897;SDS011;12957;49.434;8.684;2024-03-23T10:33:52;9.38;;;3.20;;
24897;SDS011;12957;49.434;8.684;2024-03-23T10:36:22;12.35;;;2.92;;
24897;SDS011;12957;49.434;8.684;2024-03-23T10:38:47;8.23;;;2.92;;
24897;SDS011;12957;49.434;8.684;2024-03-23T10:41:15;5.47;;;2.63;;
24897;SDS011;12957;49.434;8.684;2024-03-23T10:43:40;10.50;;;2.60;;
24897;SDS011;12957;49.434;8.684;2024-03-23T10:46:06;8.32;;;2.75;;
24897;SDS011;12957;49.434;8.684;2024-03-23T10:48:32;8.38;;;2.50;;
24897;SDS011;12957;49.434;8.684;2024-03-23T10:50:57;9.02;;;3.25;;
24897;SDS011;12957;49.434;8.684;2024-03-23T10:53:25;17.42;;;3.72;;
24897;SDS011;12957;49.434;8.684;2024-03-23T10:55:52;6.03;;;2.47;;
24897;SDS011;12957;49.434;8.684;2024-03-23T10:58:19;12.40;;;3.92;;
24897;SDS011;12957;49.434;8.684;2024-03-23T11:00:49;7.85;;;2.40;;
24897;SDS011;12957;49.434;8.684;2024-03-23T11:03:30;8.48;;;2.15;;
24897;SDS011;12957;49.434;8.684;2024-03-23T11:06:01;8.20;;;2.67;;
24897;SDS011;12957;49.434;8.684;2024-03-23T11:08:38;7.75;;;2.97;;
24897;SDS011;12957;49.434;8.684;2024-03-23T11:11:17;7.05;;;2.15;;
24897;SDS011;12957;49.434;8.684;2024-03-23T11:13:44;6.05;;;2.40;;
24897;SDS011;12957;49.434;8.684;2024-03-23T11:16:12;4.75;;;1.80;;
24897;SDS011;12957;49.434;8.684;2024-03-23T11:18:39;2.67;;;1.40;;
24897;SDS011;12957;49.434;8.684;2024-03-23T11:21:06;5.50;;;1.75;;
24897;SDS011;12957;49.434;8.684;2024-03-23T11:23:32;5.85;;;1.98;;
24897;SDS011;12957;49.434;8.684;2024-03-23T11:25:57;6.50;;;1.98;;
24897;SDS011;12957;49.434;8.684;2024-03-23T11:28:22;8.27;;;1.92;;
24897;SDS011;12957;49.434;8.684;2024-03-23T11:30:48;7.05;;;2.05;;
24897;SDS011;12957;49.434;8.684;2024-03-23T11:33:14;4.82;;;1.70;;
24897;SDS011;12957;49.434;8.684;2024-03-23T11:35:40;7.85;;;2.00;;
24897;SDS011;12957;49.434;8.684;2024-03-23T11:40:38;8.05;;;2.00;;
24897;SDS011;12957;49.434;8.684;2024-03-23T11:43:05;4.97;;;1.83;;
24897;SDS011;12957;49.434;8.684;2024-03-23T11:45:35;8.30;;;2.05;;
24897;SDS011;12957;49.434;8.684;2024-03-23T11:48:06;7.53;;;1.80;;
24897;SDS011;12957;49.434;8.684;2024-03-23T11:50:32;7.60;;;2.50;;
24897;SDS011;12957;49.434;8.684;2024-03-23T11:55:46;5.25;;;2.03;;
24897;SDS011;12957;49.434;8.684;2024-03-23T11:58:11;6.78;;;2.03;;
24897;SDS011;12957;49.434;8.684;2024-03-23T12:00:37;4.50;;;2.03;;
24897;SDS011;12957;49.434;8.684;2024-03-23T12:03:03;3.28;;;1.85;;
24897;SDS011;12957;49.434;8.684;2024-03-23T12:05:29;6.93;;;2.25;;
24897;SDS011;12957;49.434;8.684;2024-03-23T12:08:14;6.75;;;1.88;;
24897;SDS011;12957;49.434;8.684;2024-03-23T12:10:40;6.85;;;2.28;;
24897;SDS011;12957;49.434;8.684;2024-03-23T12:13:06;6.20;;;2.00;;
24897;SDS011;12957;49.434;8.684;2024-03-23T12:15:31;11.18;;;2.65;;
24897;SDS011;12957;49.434;8.684;2024-03-23T12:18:05;6.53;;;2.28;;
24897;SDS011;12957;49.434;8.684;2024-03-23T12:20:34;6.13;;;2.42;;
24897;SDS011;12957;49.434;8.684;2024-03-23T12:23:10;6.10;;;2.40;;
24897;SDS011;12957;49.434;8.684;2024-03-23T12:25:38;7.45;;;2.33;;
24897;SDS011;12957;49.434;8.684;2024-03-23T12:28:04;7.45;;;3.10;;
24897;SDS011;12957;49.434;8.684;2024-03-23T12:30:34;5.32;;;2.47;;
24897;SDS011;12957;49.434;8.684;2024-03-23T12:33:04;3.95;;;2.10;;
24897;SDS011;12957;49.434;8.684;2024-03-23T12:35:29;3.90;;;2.45;;
24897;SDS011;12957;49.434;8.684;2024-03-23T12:37:58;4.88;;;2.55;;
24897;SDS011;12957;49.434;8.684;2024-03-23T12:40:23;5.28;;;2.40;;
24897;SDS011;12957;49.434;8.684;2024-03-23T12:42:49;3.33;;;2.28;;
24897;SDS011;12957;49.434;8.684;2024-03-23T12:45:14;6.80;;;2.03;;
24897;SDS011;12957;49.434;8.684;2024-03-23T12:47:40;5.05;;;2.25;;
24897;SDS011;12957;49.434;8.684;2024-03-23T12:50:06;5.30;;;2.25;;
24897;SDS011;12957;49.434;8.684;2024-03-23T12:52:32;4.85;;;2.45;;
24897;SDS011;12957;49.434;8.684;2024-03-23T12:54:58;4.45;;;2.15;;
24897;SDS011;12957;49.434;8.684;2024-03-23T12:57:24;6.93;;;2.35;;
24897;SDS011;12957;49.434;8.684;2024-03-23T12:59:50;3.20;;;1.80;;
24897;SDS011;12957;49.434;8.684;2024-03-23T13:02:19;2.38;;;1.65;;
24897;SDS011;12957;49.434;8.684;2024-03-23T13:04:45;6.82;;;2.00;;
24897;SDS011;12957;49.434;8.684;2024-03-23T13:07:11;4.03;;;1.98;;
24897;SDS011;12957;49.434;8.684;2024-03-23T13:09:37;3.03;;;1.90;;
24897;SDS011;12957;49.434;8.684;2024-03-23T13:12:03;2.80;;;2.03;;
24897;SDS011;12957;49.434;8.684;2024-03-23T13:14:28;3.25;;;1.92;;
24897;SDS011;12957;49.434;8.684;2024-03-23T13:16:54;2.13;;;1.17;;
24897;SDS011;12957;49.434;8.684;2024-03-23T13:19:19;5.25;;;1.33;;
24897;SDS011;12957;49.434;8.684;2024-03-23T13:21:45;3.13;;;1.48;;
24897;SDS011;12957;49.434;8.684;2024-03-23T13:24:10;1.80;;;1.38;;
24897;SDS011;12957;49.434;8.684;2024-03-23T13:26:36;1.92;;;1.10;;
24897;SDS011;12957;49.434;8.684;2024-03-23T13:29:01;2.22;;;1.10;;
24897;SDS011;12957;49.434;8.684;2024-03-23T13:31:27;1.10;;;1.00;;
24897;SDS011;12957;49.434;8.684;2024-03-23T13:33:53;3.35;;;1.52;;
24897;SDS011;12957;49.434;8.684;2024-03-23T13:36:18;2.20;;;1.30;;
24897;SDS011;12957;49.434;8.684;2024-03-23T13:38:44;2.35;;;0.90;;
24897;SDS011;12957;49.434;8.684;2024-03-23T13:41:09;1.60;;;0.90;;
24897;SDS011;12957;49.434;8.684;2024-03-23T13:43:37;2.67;;;1.10;;
24897;SDS011;12957;49.434;8.684;2024-03-23T13:46:03;3.38;;;1.25;;
24897;SDS011;12957;49.434;8.684;2024-03-23T13:48:28;1.20;;;0.90;;
24897;SDS011;12957;49.434;8.684;2024-03-23T13:51:00;3.70;;;1.40;;
24897;SDS011;12957;49.434;8.684;2024-03-23T13:53:26;3.08;;;1.00;;
24897;SDS011;12957;49.434;8.684;2024-03-23T13:55:51;6.07;;;1.17;;
24897;SDS011;12957;49.434;8.684;2024-03-23T13:58:17;2.00;;;0.85;;
24897;SDS011;12957;49.434;8.684;2024-03-23T14:00:43;1.35;;;0.77;;
24897;SDS011;12957;49.434;8.684;2024-03-23T14:03:09;1.52;;;0.80;;
24897;SDS011;12957;49.434;8.684;2024-03-23T14:05:35;1.27;;;0.88;;
24897;SDS011;12957;49.434;8.684;2024-03-23T14:08:04;0.95;;;0.70;;
24897;SDS011;12957;49.434;8.684;2024-03-23T14:10:32;2.65;;;1.00;;
24897;SDS011;12957;49.434;8.684;2024-03-23T14:12:58;1.55;;;0.88;;
24897;SDS011;12957;49.434;8.684;2024-03-23T14:15:26;1.10;;;0.75;;
24897;SDS011;12957;49.434;8.684;2024-03-23T14:17:52;1.90;;;1.00;;
24897;SDS011;12957;49.434;8.684;2024-03-23T14:20:20;1.58;;;1.20;;
24897;SDS011;12957;49.434;8.684;2024-03-23T14:22:46;5.90;;;1.30;;
24897;SDS011;12957;49.434;8.684;2024-03-23T14:25:12;3.55;;;1.15;;
24897;SDS011;12957;49.434;8.684;2024-03-23T14:27:37;5.50;;;1.17;;
24897;SDS011;12957;49.434;8.684;2024-03-23T14:30:04;2.42;;;1.13;;
24897;SDS011;12957;49.434;8.684;2024-03-23T14:32:30;3.28;;;1.00;;
24897;SDS011;12957;49.434;8.684;2024-03-23T14:35:01;1.73;;;1.00;;
24897;SDS011;12957;49.434;8.684;2024-03-23T14:37:27;2.17;;;1.10;;
24897;SDS011;12957;49.434;8.684;2024-03-23T14:39:54;3.83;;;1.10;;
24897;SDS011;12957;49.434;8.684;2024-03-23T14:42:21;0.82;;;0.80;;
24897;SDS011;12957;49.434;8.684;2024-03-23T14:44:47;2.95;;;1.17;;
24897;SDS011;12957;49.434;8.684;2024-03-23T14:47:12;1.38;;;1.05;;
24897;SDS011;12957;49.434;8.684;2024-03-23T14:49:38;0.93;;;0.70;;
24897;SDS011;12957;49.434;8.684;2024-03-23T14:52:03;3.15;;;1.00;;
24897;SDS011;12957;49.434;8.684;2024-03-23T14:54:29;1.85;;;0.80;;
24897;SDS011;12957;49.434;8.684;2024-03-23T14:56:55;1.77;;;0.93;;
24897;SDS011;12957;49.434;8.684;2024-03-23T14:59:23;3.80;;;1.13;;
24897;SDS011;12957;49.434;8.684;2024-03-23T15:01:49;2.30;;;1.00;;
24897;SDS011;12957;49.434;8.684;2024-03-23T15:04:14;3.42;;;0.90;;
24897;SDS011;12957;49.434;8.684;2024-03-23T15:06:40;2.67;;;0.80;;
24897;SDS011;12957;49.434;8.684;2024-03-23T15:09:07;2.30;;;0.85;;
24897;SDS011;12957;49.434;8.684;2024-03-23T15:11:34;1.63;;;0.98;;
24897;SDS011;12957;49.434;8.684;2024-03-23T15:14:02;0.90;;;0.90;;
24897;SDS011;12957;49.434;8.684;2024-03-23T15:16:27;4.85;;;1.10;;
24897;SDS011;12957;49.434;8.684;2024-03-23T15:18:53;1.77;;;1.10;;
24897;SDS011;12957;49.434;8.684;2024-03-23T15:21:19;3.30;;;0.90;;
24897;SDS011;12957;49.434;8.684;2024-03-23T15:23:47;1.85;;;1.00;;
24897;SDS011;12957;49.434;8.684;2024-03-23T15:26:15;1.05;;;0.93;;
24897;SDS011;12957;49.434;8.684;2024-03-23T15:28:41;3.00;;;1.17;;
24897;SDS011;12957;49.434;8.684;2024-03-23T15:31:29;1.25;;;1.15;;
24897;SDS011;12957;49.434;8.684;2024-03-23T15:33:56;2.45;;;1.10;;
24897;SDS011;12957;49.434;8.684;2024-03-23T15:36:21;2.67;;;1.05;;
24897;SDS011;12957;49.434;8.684;2024-03-23T15:38:47;2.47;;;1.00;;
24897;SDS011;12957;49.434;8.684;2024-03-23T15:41:14;1.98;;;1.50;;
24897;SDS011;12957;49.434;8.684;2024-03-23T15:43:39;1.20;;;1.10;;
24897;SDS011;12957;49.434;8.684;2024-03-23T15:46:06;2.85;;;1.05;;